Time;durP1;ratioP1;P1;durP2;ratioP2;P2;SDS_P1;SDS_P2;PMS_P1;PMS_P2;Temp;Humidity;BMP_temperature;BMP_pressure;BME280_temperature;BME280_humidity;BME280_pressure;Samples;Min_cycle;Max_cycle;Signal;HPM_P1;HPM_P2
2021/07/09 00:01:23;;;;;;;10.05;6.88;;;;;;;17.41;56.67;102183.09;10375713;28;20114;-79
2021/07/09 00:06:24;;;;;;;11.43;6.68;;;;;;;17.01;57.11;102102.09;10376153;28;20145;-79
2021/07/09 00:11:25;;;;;;;7.28;6.55;;;;;;;17.58;57.46;102216.41;10377974;28;20068;-79
2021/07/09 00:16:25;;;;;;;19.02;8.80;;;;;;;17.44;57.81;102201.84;10379015;28;20065;-79
2021/07/09 00:21:26;;;;;;;14.63;8.70;;;;;;;17.24;58.19;102176.38;10381980;28;20041;-80
2021/07/09 00:26:28;;;;;;;12.80;7.45;;;;;;;17.42;57.20;102211.31;10367607;28;20038;-77
2021/07/09 00:31:29;;;;;;;15.10;7.80;;;;;;;17.43;58.31;102210.28;10382179;28;20097;-80
2021/07/09 00:36:30;;;;;;;9.57;7.72;;;;;;;17.47;58.03;102197.03;10378215;28;20408;-79
2021/07/09 00:41:30;;;;;;;12.70;8.15;;;;;;;17.39;58.34;102182.50;10375741;28;20056;-79
2021/07/09 00:46:36;;;;;;;13.05;8.50;;;;;;;17.30;57.90;102164.59;10373462;28;20025;-79
2021/07/09 00:51:37;;;;;;;15.25;10.52;;;;;;;16.98;57.71;102110.72;10376722;28;20110;-80
2021/07/09 00:56:38;;;;;;;11.43;8.68;;;;;;;17.53;58.57;102201.66;10373662;28;20115;-79
2021/07/09 01:01:39;;;;;;;14.18;9.02;;;;;;;17.60;58.45;102214.28;10376893;28;20402;-78
2021/07/09 01:06:40;;;;;;;11.20;9.13;;;;;;;17.59;57.98;102196.16;10376018;28;20077;-78
2021/07/09 01:11:40;;;;;;;14.00;9.30;;;;;;;16.43;58.13;102013.25;10379807;28;20049;-78
2021/07/09 01:16:41;;;;;;;15.90;9.35;;;;;;;17.59;58.50;102206.28;10362851;28;20037;-78
2021/07/09 01:21:42;;;;;;;14.75;8.93;;;;;;;17.48;58.02;102187.75;10378219;28;20041;-78
2021/07/09 01:26:43;;;;;;;15.20;10.27;;;;;;;17.53;58.27;102212.59;10380874;28;20087;-80
2021/07/09 01:31:43;;;;;;;17.75;10.60;;;;;;;17.38;58.03;102186.28;10383947;28;20450;-80
2021/07/09 01:36:44;;;;;;;14.35;9.07;;;;;;;17.46;58.24;102189.88;10360700;28;20053;-79
2021/07/09 01:41:44;;;;;;;10.52;8.48;;;;;;;17.48;57.78;102187.75;10388781;28;20100;-79
2021/07/09 01:46:45;;;;;;;10.05;8.52;;;;;;;17.31;58.06;102169.00;10393006;28;20113;-79
2021/07/09 01:51:45;;;;;;;17.35;10.25;;;;;;;17.41;58.99;102191.31;10384518;28;20069;-79
2021/07/09 01:56:46;;;;;;;15.13;9.52;;;;;;;17.41;58.66;102198.69;10379194;28;20038;-79
2021/07/09 02:01:47;;;;;;;14.25;9.75;;;;;;;17.31;59.09;102187.34;10380054;28;20053;-79
2021/07/09 02:06:47;;;;;;;17.75;10.90;;;;;;;17.30;58.60;102186.50;10364093;28;20058;-80
2021/07/09 02:11:48;;;;;;;14.63;9.70;;;;;;;17.28;58.59;102190.50;10376976;28;20458;-79
2021/07/09 02:16:48;;;;;;;13.38;9.90;;;;;;;17.22;58.79;102189.44;10378408;28;20084;-79
2021/07/09 02:21:49;;;;;;;13.90;9.38;;;;;;;17.24;58.76;102186.50;10379528;28;20042;-79
2021/07/09 02:26:49;;;;;;;14.45;9.63;;;;;;;16.48;58.72;102068.13;10363581;28;20129;-79
2021/07/09 02:31:50;;;;;;;16.73;10.13;;;;;;;17.15;58.13;102183.97;10383512;28;20046;-79
2021/07/09 02:36:50;;;;;;;16.02;9.13;;;;;;;17.03;59.56;102190.25;10384235;28;20042;-78
2021/07/09 02:41:52;;;;;;;11.43;8.95;;;;;;;16.52;59.62;102080.31;10380427;28;20045;-80
2021/07/09 02:46:53;;;;;;;14.32;10.75;;;;;;;17.16;59.26;102193.84;10377417;28;20093;-79
2021/07/09 02:51:53;;;;;;;10.60;9.52;;;;;;;17.16;58.99;102182.91;10377092;28;20125;-79
2021/07/09 02:56:54;;;;;;;11.68;9.43;;;;;;;17.01;59.04;102179.53;10379245;28;20534;-79
2021/07/09 03:01:54;;;;;;;13.02;9.75;;;;;;;16.99;59.40;102161.66;10377925;28;20038;-79
2021/07/09 03:06:55;;;;;;;17.73;10.02;;;;;;;17.06;59.33;102170.69;10375628;28;20141;-79
2021/07/09 03:11:56;;;;;;;12.80;10.25;;;;;;;16.95;59.39;102178.47;10377479;28;20041;-79
2021/07/09 03:16:56;;;;;;;13.68;9.73;;;;;;;16.78;59.83;102144.34;10377400;28;20045;-79
2021/07/09 03:21:57;;;;;;;16.77;10.35;;;;;;;14.71;59.93;101836.09;10374297;28;20522;-79
2021/07/09 03:26:57;;;;;;;12.20;10.52;;;;;;;16.94;60.68;102174.06;10375082;28;20088;-79
2021/07/09 03:31:58;;;;;;;15.30;12.30;;;;;;;16.31;60.72;102077.78;10374493;28;20034;-79
2021/07/09 03:36:58;;;;;;;15.55;11.93;;;;;;;16.96;61.49;102173.84;10379758;28;20042;-79
2021/07/09 03:41:59;;;;;;;17.23;15.00;;;;;;;16.81;60.95;102143.94;10380836;28;20084;-80
2021/07/09 03:47:00;;;;;;;16.85;11.93;;;;;;;16.89;61.32;102173.00;10381366;28;20038;-79
2021/07/09 03:52:00;;;;;;;16.00;13.13;;;;;;;16.94;61.85;102184.16;10379909;28;20141;-80
2021/07/09 03:57:02;;;;;;;14.48;11.48;;;;;;;16.94;61.57;102182.28;10381790;28;20096;-79
2021/07/09 04:02:03;;;;;;;20.13;12.48;;;;;;;17.02;61.76;102191.31;10381149;28;20084;-78
2021/07/09 04:07:03;;;;;;;33.83;14.00;;;;;;;17.14;60.95;102193.22;10384985;28;20077;-79
2021/07/09 04:12:04;;;;;;;15.52;11.45;;;;;;;17.33;60.58;102207.97;10379411;28;20370;-79
2021/07/09 04:17:04;;;;;;;15.13;10.75;;;;;;;17.55;60.48;102194.03;10373853;28;20504;-79
2021/07/09 04:22:06;;;;;;;21.67;12.32;;;;;;;17.57;60.30;102181.00;10373402;28;20065;-79
2021/07/09 04:27:06;;;;;;;14.98;12.27;;;;;;;17.36;60.45;102087.09;10372672;28;20034;-80
2021/07/09 04:32:07;;;;;;;32.83;13.40;;;;;;;18.33;59.94;102202.31;10375225;28;20045;-79
2021/07/09 04:37:10;;;;;;;12.75;10.93;;;;;;;17.85;59.58;102106.78;10374953;28;20045;-79
2021/07/09 04:42:11;;;;;;;15.18;11.05;;;;;;;18.47;59.11;102153.72;10358260;28;20045;-79
2021/07/09 04:47:12;;;;;;;16.45;11.80;;;;;;;19.03;58.43;102196.88;10368405;28;20379;-78
2021/07/09 04:52:12;;;;;;;15.10;9.70;;;;;;;19.44;58.45;102198.25;10368310;28;20045;-79
2021/07/09 04:57:13;;;;;;;21.92;11.38;;;;;;;20.76;56.62;102208.84;10367066;28;20038;-80
2021/07/09 05:02:13;;;;;;;20.98;12.05;;;;;;;20.24;56.61;102175.44;10367565;28;20169;-79
2021/07/09 05:07:14;;;;;;;17.58;10.77;;;;;;;19.98;57.81;102207.69;10368529;28;20173;-78
2021/07/09 05:12:14;;;;;;;17.23;10.63;;;;;;;19.33;58.17;102087.19;10369062;28;20145;-79
2021/07/09 05:17:15;;;;;;;15.73;10.88;;;;;;;20.36;58.16;102223.94;10373118;28;20045;-78
2021/07/09 05:22:15;;;;;;;15.80;10.07;;;;;;;20.67;57.99;102211.91;10380304;28;20188;-79
2021/07/09 05:27:16;;;;;;;20.17;11.10;;;;;;;20.79;57.88;102203.69;10382456;28;20538;-77
2021/07/09 05:32:23;;;;;;;30.88;12.57;;;;;;;20.79;57.62;102184.41;10383530;28;20099;-79
2021/07/09 05:37:24;;;;;;;17.38;14.25;;;;;;;21.90;56.09;102215.00;10364351;28;20095;-79
2021/07/09 05:42:24;;;;;;;19.50;13.32;;;;;;;22.59;54.67;102226.16;10377007;28;20311;-80
2021/07/09 05:47:26;;;;;;;21.65;14.52;;;;;;;23.41;52.90;102224.88;10359599;28;20121;-79
2021/07/09 05:52:27;;;;;;;13.30;9.73;;;;;;;22.77;53.44;102188.38;10376198;28;20496;-80
2021/07/09 05:57:27;;;;;;;12.65;11.35;;;;;;;22.07;55.56;102220.63;10378588;28;20038;-78
2021/07/09 06:02:28;;;;;;;13.57;11.80;;;;;;;23.16;55.48;102215.06;10379129;28;20060;-78
2021/07/09 06:07:28;;;;;;;23.38;11.52;;;;;;;24.62;51.45;102210.28;10378152;28;20057;-77
2021/07/09 06:12:29;;;;;;;16.52;11.57;;;;;;;24.45;50.03;102195.69;10380682;28;20092;-76
2021/07/09 06:17:29;;;;;;;12.52;11.23;;;;;;;23.75;51.86;102216.59;10378019;28;20056;-78
2021/07/09 06:22:29;;;;;;;12.13;10.95;;;;;;;23.55;51.56;102215.19;10380256;28;20038;-74
2021/07/09 06:27:30;;;;;;;12.27;9.70;;;;;;;23.47;51.90;102217.53;10288691;28;20136;-76
2021/07/09 06:32:30;;;;;;;12.68;11.07;;;;;;;24.73;50.49;102220.38;10383198;28;20041;-76
2021/07/09 06:37:31;;;;;;;17.60;9.48;;;;;;;26.72;46.53;102183.97;10379145;28;20524;-76
2021/07/09 06:42:31;;;;;;;12.45;8.27;;;;;;;26.29;44.79;102206.31;10382581;28;20034;-78
2021/07/09 06:47:32;;;;;;;11.27;7.30;;;;;;;25.88;45.54;102202.53;10377645;28;20501;-78
2021/07/09 06:52:32;;;;;;;8.10;6.78;;;;;;;26.73;42.62;102193.97;10379257;28;20449;-77
2021/07/09 06:57:33;;;;;;;9.32;5.70;;;;;;;27.12;43.54;102199.81;10378043;28;20038;-78
2021/07/09 07:02:33;;;;;;;8.27;6.45;;;;;;;27.69;42.11;102154.16;10381129;28;20042;-78
2021/07/09 07:07:34;;;;;;;10.27;7.75;;;;;;;28.66;41.55;102184.44;10376005;28;20121;-74
2021/07/09 07:12:34;;;;;;;8.95;6.68;;;;;;;29.09;40.40;102190.25;10340110;28;20461;-74
2021/07/09 07:17:36;;;;;;;17.55;7.32;;;;;;;29.61;40.02;102165.50;10336789;28;20397;-72
2021/07/09 07:22:36;;;;;;;7.03;5.93;;;;;;;30.06;40.29;102188.47;10334870;28;20109;-73
2021/07/09 07:27:37;;;;;;;23.77;7.13;;;;;;;29.03;42.61;102188.63;10332654;28;20129;-76
2021/07/09 07:32:38;;;;;;;22.75;7.53;;;;;;;29.47;40.35;102189.66;10333369;28;20147;-75
2021/07/09 07:37:42;;;;;;;13.60;8.32;;;;;;;29.71;41.37;102176.59;10313838;28;20042;-71
2021/07/09 07:42:42;;;;;;;13.65;8.30;;;;;;;30.40;39.17;102195.88;10276507;28;20057;-73
2021/07/09 07:47:43;;;;;;;12.15;8.35;;;;;;;28.73;42.75;102198.88;10367960;28;20030;-73
2021/07/09 07:52:43;;;;;;;9.00;8.15;;;;;;;28.50;40.17;102100.09;10373543;28;20058;-74
2021/07/09 07:57:44;;;;;;;10.07;6.28;;;;;;;29.09;39.86;102204.19;10347162;28;20141;-73
2021/07/09 08:02:44;;;;;;;9.13;7.15;;;;;;;27.76;41.16;102176.13;10328855;28;20117;-72
2021/07/09 08:07:45;;;;;;;15.35;7.05;;;;;;;27.36;41.75;102203.75;10327625;28;20082;-72
2021/07/09 08:12:45;;;;;;;17.33;7.30;;;;;;;27.83;40.91;102168.38;10328977;28;20066;-72
2021/07/09 08:17:52;;;;;;;9.45;6.47;;;;;;;29.55;41.11;102195.44;10329620;28;20049;-73
2021/07/09 08:22:53;;;;;;;7.32;6.68;;;;;;;30.64;38.38;102198.59;10332394;28;20484;-74
2021/07/09 08:27:53;;;;;;;17.10;6.20;;;;;;;31.46;36.84;102200.94;10330247;28;20066;-74
2021/07/09 08:32:54;;;;;;;6.55;5.88;;;;;;;32.25;37.22;102197.16;10328901;28;20120;-74
2021/07/09 08:37:54;;;;;;;4.05;3.72;;;;;;;31.85;35.55;102154.81;10327328;28;20046;-73
2021/07/09 08:42:55;;;;;;;6.50;6.00;;;;;;;31.89;34.42;102190.31;10331735;28;20042;-73
2021/07/09 08:47:55;;;;;;;6.68;5.43;;;;;;;30.57;36.57;102168.22;10344501;28;20057;-80
2021/07/09 08:52:56;;;;;;;5.93;5.28;;;;;;;30.42;36.19;102079.00;10318662;28;20058;-78
2021/07/09 08:57:56;;;;;;;7.75;6.63;;;;;;;28.79;36.26;101923.66;10328763;28;20486;-78
2021/07/09 09:02:57;;;;;;;9.90;5.22;;;;;;;30.29;37.77;102091.78;10330232;28;20473;-77
2021/07/09 09:08:04;;;;;;;6.60;5.82;;;;;;;29.16;39.40;102181.56;10332433;28;20070;-77
2021/07/09 09:13:07;;;;;;;6.75;5.97;;;;;;;28.41;39.04;102053.63;10332110;28;20050;-78
2021/07/09 09:18:21;;;;;;;6.88;6.03;;;;;;;29.55;42.15;102105.28;10332333;28;20396;-77
2021/07/09 09:23:22;;;;;;;5.43;5.05;;;;;;;31.18;36.52;102175.66;10328275;28;20050;-77
2021/07/09 09:28:22;;;;;;;8.55;6.25;;;;;;;29.83;38.15;102134.25;10329547;28;20478;-79
2021/07/09 09:33:29;;;;;;;5.88;5.30;;;;;;;31.45;36.68;102152.50;10328854;28;20046;-79
2021/07/09 09:38:30;;;;;;;7.97;5.60;;;;;;;31.80;36.19;102163.31;10309770;28;20046;-79
2021/07/09 09:43:31;;;;;;;9.00;6.47;;;;;;;31.84;35.92;102172.75;10325338;28;20038;-79
2021/07/09 09:48:37;;;;;;;9.40;5.95;;;;;;;31.59;37.93;102143.28;10327323;28;20121;-79
2021/07/09 09:53:37;;;;;;;6.77;4.17;;;;;;;32.54;34.98;102157.53;10327039;28;20058;-78
2021/07/09 09:58:38;;;;;;;3.88;3.58;;;;;;;33.41;32.65;102173.06;10326432;28;20062;-77
2021/07/09 10:03:38;;;;;;;4.93;4.63;;;;;;;32.57;33.44;102187.75;10327994;28;20045;-78
2021/07/09 10:08:39;;;;;;;6.00;4.38;;;;;;;31.56;34.77;102102.75;10330596;28;20055;-78
2021/07/09 10:13:39;;;;;;;5.97;5.40;;;;;;;32.15;34.17;102179.41;10334268;28;20042;-79
2021/07/09 10:18:40;;;;;;;6.47;5.07;;;;;;;31.63;35.84;102167.56;10338451;28;20045;-79
2021/07/09 10:23:40;;;;;;;5.00;4.60;;;;;;;30.38;36.11;102172.97;10337143;28;20082;-81
2021/07/09 10:28:40;;;;;;;6.20;5.70;;;;;;;30.31;37.01;102075.53;10325775;28;20054;-84
2021/07/09 10:33:41;;;;;;;7.95;7.20;;;;;;;30.85;35.74;102157.19;10338933;28;20050;-81
2021/07/09 10:38:41;;;;;;;10.15;9.20;;;;;;;31.39;35.73;102166.91;10336920;28;20509;-82
2021/07/09 10:43:42;;;;;;;16.25;11.20;;;;;;;29.97;36.70;102165.13;10337277;28;20500;-82
2021/07/09 10:48:42;;;;;;;10.65;9.65;;;;;;;30.37;37.03;102135.81;10338403;28;20030;-83
2021/07/09 10:53:44;;;;;;;9.23;8.35;;;;;;;29.99;36.97;102102.22;10344108;28;20465;-83
2021/07/09 10:58:44;;;;;;;11.68;10.57;;;;;;;28.99;39.43;102042.50;10337782;28;20122;-79
2021/07/09 11:04:06;;;;;;;13.77;12.50;;;;;;;29.38;37.97;102165.16;10356442;28;20478;-78
2021/07/09 11:09:10;;;;;;;14.98;10.55;;;;;;;29.49;37.38;102100.88;10360510;28;20486;-78
2021/07/09 11:14:18;;;;;;;11.48;10.35;;;;;;;27.30;37.67;101815.50;10339143;28;20050;-77
2021/07/09 11:19:19;;;;;;;16.27;11.88;;;;;;;29.38;36.72;102144.78;10335222;28;20381;-79
2021/07/09 11:24:22;;;;;;;11.13;10.07;;;;;;;30.67;35.70;102137.31;10333163;28;20032;-79
2021/07/09 11:29:42;;;;;;;10.50;9.38;;;;;;;31.65;40.65;102137.31;10333337;28;20035;-81
2021/07/09 11:34:46;;;;;;;10.63;9.70;;;;;;;31.41;33.89;102171.06;10339939;28;20081;-82
2021/07/09 11:39:48;;;;;;;11.38;10.23;;;;;;;29.57;36.41;102103.00;10335468;28;20085;-83
2021/07/09 11:44:53;;;;;;;11.88;10.75;;;;;;;30.27;37.09;102159.13;10333261;28;20038;-81
2021/07/09 11:50:01;;;;;;;13.93;10.25;;;;;;;29.73;34.62;102096.13;10336440;28;20416;-80
2021/07/09 11:55:05;;;;;;;11.88;10.70;;;;;;;29.45;36.79;102162.00;10334955;28;20045;-80
2021/07/09 12:00:10;;;;;;;13.60;10.52;;;;;;;29.32;33.46;102138.44;10330796;28;20041;-78
2021/07/09 12:05:15;;;;;;;14.68;10.52;;;;;;;29.36;35.11;102167.44;10332236;28;20114;-74
2021/07/09 12:10:29;;;;;;;13.10;11.45;;;;;;;29.17;37.44;102155.34;10312658;28;20543;-73
2021/07/09 12:15:31;;;;;;;10.73;9.82;;;;;;;28.78;38.63;102158.97;10330932;28;20045;-73
2021/07/09 12:20:38;;;;;;;25.88;11.70;;;;;;;27.89;37.93;102150.53;10329895;28;20096;-74
2021/07/09 12:25:42;;;;;;;13.05;11.75;;;;;;;30.25;36.38;102157.78;10329845;28;20435;-75
2021/07/09 12:30:47;;;;;;;12.13;8.50;;;;;;;31.42;34.56;102068.31;10330525;28;20100;-75
2021/07/09 12:35:48;;;;;;;10.07;9.30;;;;;;;31.38;32.60;102128.88;10332840;28;20125;-75
2021/07/09 12:40:51;;;;;;;11.70;10.60;;;;;;;30.62;33.90;102159.75;10312865;28;20038;-75
2021/07/09 12:46:05;;;;;;;18.60;12.35;;;;;;;29.83;40.87;102135.09;10329807;28;20089;-75
2021/07/09 12:51:30;;;;;;;11.15;10.07;;;;;;;29.51;36.96;102163.63;10329093;28;20041;-75
2021/07/09 13:02:28;;;;;;;11.88;10.85;;;;;;;28.29;37.97;102085.41;10628372;23;20046;-72
2021/07/09 13:07:28;;;;;;;23.55;12.30;;;;;;;30.29;35.89;102112.16;10355721;28;20073;-72
2021/07/09 13:12:30;;;;;;;11.05;9.48;;;;;;;31.19;34.11;102162.50;10355431;28;20401;-70
2021/07/09 13:17:31;;;;;;;10.60;9.70;;;;;;;31.34;33.53;102159.44;10373378;28;20461;-72
2021/07/09 13:22:34;;;;;;;10.93;9.65;;;;;;;31.06;34.75;102158.50;10371595;28;20034;-71
2021/07/09 13:27:35;;;;;;;11.85;10.70;;;;;;;30.39;36.16;102118.75;10372234;28;20053;-70
2021/07/09 13:32:38;;;;;;;12.45;11.18;;;;;;;31.36;34.24;102112.38;10371666;28;20122;-71
2021/07/09 13:37:39;;;;;;;15.02;10.57;;;;;;;32.62;32.07;102137.16;10355441;28;20025;-69
2021/07/09 13:42:41;;;;;;;12.75;11.38;;;;;;;31.61;31.74;102150.25;10372698;28;20452;-70
2021/07/09 13:47:43;;;;;;;12.15;11.07;;;;;;;30.74;34.79;102073.44;10379501;28;20054;-69
2021/07/09 13:52:43;;;;;;;10.75;9.65;;;;;;;31.54;33.15;102147.03;10363361;28;20041;-69
2021/07/09 13:57:43;;;;;;;10.40;9.10;;;;;;;30.96;33.82;102167.09;10380882;28;20041;-69
2021/07/09 14:02:44;;;;;;;8.32;7.53;;;;;;;30.50;34.39;102148.19;10378459;28;20061;-73
2021/07/09 14:07:47;;;;;;;9.65;8.77;;;;;;;28.22;36.23;101964.31;10363265;28;20409;-71
2021/07/09 14:12:47;;;;;;;9.00;7.68;;;;;;;29.27;36.70;102112.56;10378826;28;20026;-70
2021/07/09 14:17:48;;;;;;;13.68;6.80;;;;;;;30.37;36.83;102135.81;10378307;28;20042;-73
2021/07/09 14:22:48;;;;;;;6.70;6.20;;;;;;;30.83;34.50;102118.34;10321052;28;20108;-71
2021/07/09 14:27:49;;;;;;;7.43;6.68;;;;;;;30.84;34.27;102117.22;10360858;28;20121;-74
2021/07/09 14:32:49;;;;;;;6.70;6.00;;;;;;;30.62;34.03;102098.25;10377604;28;20587;-73
2021/07/09 14:37:50;;;;;;;7.45;4.13;;;;;;;29.91;33.92;102121.63;10377703;28;20204;-72
2021/07/09 14:42:50;;;;;;;11.65;4.60;;;;;;;30.05;37.55;102061.91;10379117;28;20129;-73
2021/07/09 14:47:51;;;;;;;10.68;3.75;;;;;;;30.84;32.88;102105.19;10377196;28;20069;-71
2021/07/09 14:52:51;;;;;;;5.57;4.03;;;;;;;31.32;32.08;102097.31;10378537;28;20061;-70
2021/07/09 14:57:52;;;;;;;6.50;5.68;;;;;;;30.76;32.89;102056.34;10360184;28;20053;-71
2021/07/09 15:02:52;;;;;;;5.90;4.60;;;;;;;30.46;32.97;102049.31;10375853;28;20054;-70
2021/07/09 15:07:52;;;;;;;5.72;5.15;;;;;;;30.95;33.50;102051.56;10376563;28;20030;-72
2021/07/09 15:12:53;;;;;;;5.43;4.93;;;;;;;30.90;34.03;102076.81;10377864;28;20073;-71
2021/07/09 15:17:53;;;;;;;5.28;4.80;;;;;;;30.53;35.16;102060.94;10376747;28;20512;-71
2021/07/09 15:22:55;;;;;;;4.18;3.80;;;;;;;30.02;35.36;102056.09;10376431;28;20030;-72
2021/07/09 15:27:55;;;;;;;7.07;6.15;;;;;;;29.92;35.37;102064.63;10377067;28;20038;-71
2021/07/09 15:32:56;;;;;;;7.15;4.65;;;;;;;30.07;35.90;102073.63;10375339;28;20038;-71
2021/07/09 15:37:56;;;;;;;10.18;5.32;;;;;;;30.19;36.44;102048.06;10375435;28;20036;-71
2021/07/09 15:42:56;;;;;;;6.30;4.93;;;;;;;30.28;36.68;102060.22;10376885;28;20065;-71
2021/07/09 15:47:57;;;;;;;8.25;5.25;;;;;;;29.75;36.43;102001.75;10376453;28;20045;-73
2021/07/09 15:52:57;;;;;;;8.52;5.10;;;;;;;29.20;36.54;102062.69;10374796;28;20452;-70
2021/07/09 15:57:58;;;;;;;5.95;5.18;;;;;;;29.25;39.51;102050.63;10375114;28;20478;-72
2021/07/09 16:02:58;;;;;;;7.85;4.20;;;;;;;29.34;37.21;102048.84;10357277;28;20061;-72
2021/07/09 16:07:58;;;;;;;4.00;3.70;;;;;;;29.72;36.74;102041.44;10373106;28;20449;-72
2021/07/09 16:12:59;;;;;;;13.32;5.13;;;;;;;28.08;37.94;101952.16;10374141;28;20401;-72
2021/07/09 16:17:59;;;;;;;7.43;5.15;;;;;;;28.25;38.98;102042.56;10374529;28;20034;-72
2021/07/09 16:23:00;;;;;;;6.85;5.82;;;;;;;28.41;38.13;102034.94;10374816;28;20033;-72
2021/07/09 16:28:00;;;;;;;5.32;4.80;;;;;;;27.94;38.89;102033.56;10374978;28;20056;-72
2021/07/09 16:33:00;;;;;;;5.05;4.55;;;;;;;26.74;39.74;101896.38;10372702;28;20067;-72
2021/07/09 16:38:01;;;;;;;6.60;4.95;;;;;;;27.12;40.51;102028.28;10373131;28;20042;-72
2021/07/09 16:43:01;;;;;;;8.55;5.10;;;;;;;26.50;41.07;102025.84;10374060;28;20052;-71
2021/07/09 16:48:02;;;;;;;5.82;4.65;;;;;;;25.84;43.51;102018.22;10374199;28;20033;-72
2021/07/09 16:53:03;;;;;;;9.23;5.38;;;;;;;25.52;43.86;102013.63;10356274;28;20065;-72
2021/07/09 16:58:03;;;;;;;9.32;6.18;;;;;;;24.83;43.48;101979.44;10372903;28;20052;-72
2021/07/09 17:03:03;;;;;;;9.52;6.88;;;;;;;25.06;43.56;102016.16;10371774;28;20066;-73
2021/07/09 17:08:04;;;;;;;7.88;5.55;;;;;;;24.95;45.12;102015.28;10356116;28;20130;-72
2021/07/09 17:13:04;;;;;;;6.82;6.03;;;;;;;24.75;44.34;102015.09;10372606;28;20041;-72
2021/07/09 17:18:05;;;;;;;10.48;6.50;;;;;;;24.93;43.86;102013.84;10373401;28;20076;-72
2021/07/09 17:23:06;;;;;;;17.42;8.52;;;;;;;24.85;44.30;101978.34;10374109;28;20117;-72
2021/07/09 17:28:09;;;;;;;10.13;8.60;;;;;;;24.89;44.03;101948.97;10372283;28;20493;-73
2021/07/09 17:33:10;;;;;;;20.55;8.52;;;;;;;24.81;43.49;101992.72;10372702;28;20026;-73
2021/07/09 17:38:10;;;;;;;11.55;8.63;;;;;;;24.84;43.98;102021.84;10373461;28;20061;-72
2021/07/09 17:43:10;;;;;;;14.75;9.20;;;;;;;24.70;44.42;102002.06;10373001;28;20034;-71
2021/07/09 17:48:11;;;;;;;10.90;9.30;;;;;;;23.25;44.50;101797.38;10371726;28;20553;-71
2021/07/09 17:53:11;;;;;;;12.77;9.43;;;;;;;24.17;45.70;101998.25;10373116;28;20084;-72
2021/07/09 17:58:12;;;;;;;13.07;10.38;;;;;;;24.06;45.12;101997.34;10371582;28;20034;-72
2021/07/09 18:03:12;;;;;;;10.63;9.05;;;;;;;23.88;45.52;102001.28;10370923;28;20054;-72
2021/07/09 18:08:13;;;;;;;13.98;10.77;;;;;;;23.80;45.98;102023.03;10372584;28;20497;-72
2021/07/09 18:13:13;;;;;;;21.02;9.68;;;;;;;23.47;46.27;101980.59;10371654;28;20069;-73
2021/07/09 18:18:14;;;;;;;23.20;12.57;;;;;;;22.44;46.83;101844.94;10371692;28;20042;-72
2021/07/09 18:23:16;;;;;;;11.75;9.82;;;;;;;23.04;47.41;101964.81;10372402;28;20042;-72
2021/07/09 18:28:17;;;;;;;14.00;11.27;;;;;;;23.05;47.42;102002.44;10372276;28;20121;-71
2021/07/09 18:33:18;;;;;;;14.07;12.02;;;;;;;21.75;47.87;101801.91;10377135;28;20483;-71
2021/07/09 18:38:19;;;;;;;17.70;11.60;;;;;;;22.91;48.56;102004.66;10345617;28;20034;-71
2021/07/09 18:43:19;;;;;;;19.33;13.48;;;;;;;22.69;48.17;102013.75;10379346;28;20073;-71
2021/07/09 18:48:19;;;;;;;17.55;13.57;;;;;;;22.72;48.61;102060.19;10378438;28;20073;-71
2021/07/09 18:53:20;;;;;;;21.88;13.20;;;;;;;22.64;49.15;102034.91;10378492;28;20057;-71
2021/07/09 18:58:22;;;;;;;23.38;14.32;;;;;;;22.34;49.76;102007.63;10376743;28;20565;-71
2021/07/09 19:03:22;;;;;;;14.95;13.40;;;;;;;22.38;50.13;102042.75;10377648;28;20057;-70
2021/07/09 19:08:22;;;;;;;18.27;12.30;;;;;;;22.08;49.90;102000.75;10378010;28;20034;-72
2021/07/09 19:13:23;;;;;;;18.33;12.05;;;;;;;22.08;50.53;102029.22;10360489;28;20054;-71
2021/07/09 19:18:23;;;;;;;13.65;11.48;;;;;;;20.90;50.95;101877.16;10378196;28;20393;-71
2021/07/09 19:23:24;;;;;;;18.70;12.55;;;;;;;21.50;50.78;102002.66;10376581;28;20073;-71
2021/07/09 19:28:24;;;;;;;17.98;12.95;;;;;;;20.62;50.78;101865.00;10377412;28;20125;-71
2021/07/09 19:33:25;;;;;;;16.88;12.35;;;;;;;21.17;51.16;101978.53;10375499;28;20112;-71
2021/07/09 19:38:26;;;;;;;17.05;12.48;;;;;;;21.27;51.95;102036.59;10375702;28;20034;-72
2021/07/09 19:43:26;;;;;;;22.88;14.10;;;;;;;20.15;51.77;101872.38;10376459;28;20392;-70
2021/07/09 19:48:26;;;;;;;25.13;16.23;;;;;;;20.98;52.25;102050.25;10374818;28;20034;-71
2021/07/09 19:53:27;;;;;;;17.88;13.27;;;;;;;20.89;52.44;102054.44;10358893;28;20034;-72
2021/07/09 19:58:27;;;;;;;19.88;12.60;;;;;;;20.69;53.13;102042.94;10376079;28;20114;-71
2021/07/09 20:03:27;;;;;;;23.35;13.38;;;;;;;20.56;53.15;102058.59;10374030;28;20066;-72
2021/07/09 20:08:28;;;;;;;23.08;14.73;;;;;;;19.48;52.85;101902.78;10374682;28;20187;-72
2021/07/09 20:13:28;;;;;;;15.95;13.35;;;;;;;20.36;53.23;102060.78;10374204;28;20048;-71
2021/07/09 20:18:29;;;;;;;19.48;14.35;;;;;;;20.24;54.04;102069.00;10375327;28;20342;-70
2021/07/09 20:23:29;;;;;;;27.15;14.98;;;;;;;20.02;54.12;102054.06;10375129;28;20045;-70
2021/07/09 20:28:29;;;;;;;23.90;16.00;;;;;;;19.84;53.81;102008.22;10373470;28;20034;-71
2021/07/09 20:33:30;;;;;;;25.13;14.30;;;;;;;18.83;53.96;101866.88;10374157;28;20052;-71
2021/07/09 20:38:30;;;;;;;22.48;16.35;;;;;;;19.94;53.69;102067.09;10374417;28;20045;-71
2021/07/09 20:43:31;;;;;;;32.55;18.73;;;;;;;18.86;57.22;101935.00;10373200;28;20087;-72
2021/07/09 20:48:31;;;;;;;20.67;17.42;;;;;;;19.41;56.87;102007.25;10374262;28;20073;-71
2021/07/09 20:53:32;;;;;;;24.50;15.70;;;;;;;19.66;57.03;102051.16;10355929;28;20069;-71
2021/07/09 20:58:32;;;;;;;34.45;18.30;;;;;;;19.45;57.02;102035.09;10372766;28;20112;-71
2021/07/09 21:03:33;;;;;;;21.83;17.85;;;;;;;19.54;56.25;102054.88;10371653;28;20195;-71
2021/07/09 21:08:33;;;;;;;25.80;16.50;;;;;;;19.25;57.20;102047.13;10356131;28;20029;-72
2021/07/09 21:13:33;;;;;;;24.00;17.90;;;;;;;18.28;59.81;101945.22;10374295;28;20065;-71
2021/07/09 21:18:34;;;;;;;41.88;23.58;;;;;;;18.98;59.73;102030.06;10374203;28;20041;-71
2021/07/09 21:23:34;;;;;;;46.03;24.45;;;;;;;19.06;60.35;102053.69;10373683;28;20109;-71
2021/07/09 21:28:35;;;;;;;40.05;21.65;;;;;;;18.76;59.01;101983.03;10373215;28;20061;-71
2021/07/09 21:33:35;;;;;;;43.03;22.08;;;;;;;19.14;58.99;102055.28;10371577;28;20069;-71
2021/07/09 21:38:36;;;;;;;39.38;26.52;;;;;;;19.30;58.19;102038.22;10371860;28;20096;-73
2021/07/09 21:43:36;;;;;;;32.03;20.73;;;;;;;19.23;58.21;102024.53;10372722;28;20499;-72
2021/07/09 21:48:36;;;;;;;27.08;19.25;;;;;;;19.22;58.48;102053.09;10355221;28;20411;-71
2021/07/09 21:53:37;;;;;;;36.25;18.90;;;;;;;19.25;58.45;102025.16;10372827;28;20117;-71
2021/07/09 21:58:38;;;;;;;28.58;19.50;;;;;;;19.14;59.25;102001.19;10372875;28;20057;-72
2021/07/09 22:03:38;;;;;;;22.15;15.57;;;;;;;19.18;58.68;102024.41;10370421;28;20054;-72
2021/07/09 22:08:38;;;;;;;34.42;19.55;;;;;;;19.22;58.91;102027.53;10379190;28;20041;-71
2021/07/09 22:13:39;;;;;;;32.53;20.25;;;;;;;19.06;58.87;101979.56;10378925;28;20541;-71
2021/07/09 22:18:39;;;;;;;28.75;20.00;;;;;;;19.30;58.19;102032.72;10346035;28;20034;-71
2021/07/09 22:23:41;;;;;;;26.08;17.50;;;;;;;19.48;58.94;102034.63;10380109;28;20397;-72
2021/07/09 22:28:42;;;;;;;23.23;15.25;;;;;;;19.56;58.35;102031.59;10379481;28;20034;-71
2021/07/09 22:33:43;;;;;;;27.33;17.23;;;;;;;19.13;58.87;101994.03;10379021;28;20061;-74
2021/07/09 22:38:43;;;;;;;24.20;14.95;;;;;;;19.37;58.95;102010.66;10378700;28;20038;-72
2021/07/09 22:43:44;;;;;;;29.38;17.83;;;;;;;19.14;58.95;102011.34;10379320;28;20533;-72
2021/07/09 22:48:45;;;;;;;30.30;20.42;;;;;;;19.33;59.28;102024.03;10361216;28;20029;-72